createdAt,value
2019-03-06T00:00:41.681Z,6.03
2019-03-06T00:03:46.370Z,6.93
2019-03-06T00:06:51.100Z,8.67
2019-03-06T00:09:55.832Z,8.67
2019-03-06T00:13:00.977Z,6.07
2019-03-06T00:16:05.705Z,6.40
2019-03-06T00:19:10.433Z,6.83
2019-03-06T00:22:15.164Z,7.20
2019-03-06T00:25:19.899Z,8.83
2019-03-06T00:28:24.633Z,7.60
2019-03-06T00:31:29.365Z,6.30
2019-03-06T00:34:33.800Z,9.67
2019-03-06T00:37:38.507Z,10.87
2019-03-06T00:40:45.907Z,9.50
2019-03-06T00:43:50.644Z,10.37
2019-03-06T00:46:55.371Z,9.33
2019-03-06T00:50:00.183Z,10.67
2019-03-06T00:53:05.034Z,7.73
2019-03-06T00:56:09.764Z,10.70
2019-03-06T00:59:14.573Z,9.47
2019-03-06T01:02:19.012Z,8.97
2019-03-06T01:05:24.488Z,7.07
2019-03-06T01:08:29.402Z,10.23
2019-03-06T01:11:34.235Z,8.77
2019-03-06T01:14:38.898Z,7.03
2019-03-06T01:17:43.563Z,8.23
2019-03-06T01:20:48.227Z,7.57
2019-03-06T01:23:52.711Z,6.80
2019-03-06T01:26:57.389Z,6.33
2019-03-06T01:30:01.820Z,7.53
2019-03-06T01:33:09.302Z,6.43
2019-03-06T01:36:15.612Z,5.40
2019-03-06T01:39:25.022Z,6.43
2019-03-06T01:42:32.187Z,7.03
2019-03-06T01:45:36.926Z,7.93
2019-03-06T01:48:41.655Z,6.33
2019-03-06T01:51:46.392Z,11.87
2019-03-06T01:54:51.122Z,8.27
2019-03-06T01:57:55.848Z,8.83
2019-03-06T02:01:00.582Z,11.60
2019-03-06T02:04:05.018Z,6.33
2019-03-06T02:07:09.890Z,7.73
2019-03-06T02:10:16.084Z,14.23
2019-03-06T02:13:24.684Z,8.07
2019-03-06T02:16:29.350Z,7.67
2019-03-06T02:19:33.853Z,7.70
2019-03-06T02:22:38.297Z,15.07
2019-03-06T02:25:43.134Z,8.27
2019-03-06T02:28:47.570Z,9.10
2019-03-06T02:31:52.292Z,8.83
2019-03-06T02:34:57.014Z,11.33
2019-03-06T02:38:01.457Z,9.93
2019-03-06T02:41:06.177Z,9.77
2019-03-06T02:44:11.000Z,9.20
2019-03-06T02:47:15.848Z,8.73
2019-03-06T02:50:20.919Z,10.57
2019-03-06T02:53:25.731Z,8.53
2019-03-06T02:56:30.548Z,7.70
2019-03-06T02:59:45.622Z,10.10
2019-03-06T03:02:51.705Z,7.27
2019-03-06T03:05:58.592Z,8.70
2019-03-06T03:09:03.708Z,9.17
2019-03-06T03:12:08.545Z,12.27
2019-03-06T03:15:13.116Z,8.87
2019-03-06T03:18:17.906Z,8.20
2019-03-06T03:21:22.343Z,8.73
2019-03-06T03:24:27.049Z,7.50
2019-03-06T03:27:31.783Z,9.13
2019-03-06T03:30:36.591Z,10.03
2019-03-06T03:33:41.347Z,7.50
2019-03-06T03:36:45.770Z,7.77
2019-03-06T03:39:50.209Z,7.13
2019-03-06T03:42:54.818Z,11.83
2019-03-06T03:45:59.554Z,7.30
2019-03-06T03:49:04.278Z,11.97
2019-03-06T03:52:09.319Z,8.47
2019-03-06T03:55:19.923Z,9.13
2019-03-06T03:58:24.370Z,8.03
2019-03-06T04:01:28.805Z,10.70
2019-03-06T04:04:33.570Z,8.67
2019-03-06T04:07:38.306Z,7.90
2019-03-06T04:10:42.750Z,9.47
2019-03-06T04:13:47.180Z,6.93
2019-03-06T04:16:51.613Z,12.17
2019-03-06T04:19:56.096Z,8.27
2019-03-06T04:23:00.921Z,6.67
2019-03-06T04:26:05.369Z,8.50
2019-03-06T04:29:09.800Z,9.97
2019-03-06T04:32:14.510Z,8.33
2019-03-06T04:35:18.944Z,9.90
2019-03-06T04:38:23.372Z,8.43
2019-03-06T04:41:27.814Z,11.27
2019-03-06T04:44:32.606Z,11.00
2019-03-06T04:47:37.747Z,10.10
2019-03-06T04:50:42.475Z,9.97
2019-03-06T04:53:47.206Z,7.73
2019-03-06T04:56:51.641Z,10.80
2019-03-06T04:59:56.363Z,12.20
2019-03-06T05:03:00.787Z,11.93
2019-03-06T05:06:05.520Z,10.03
2019-03-06T05:09:10.228Z,9.33
2019-03-06T05:12:14.673Z,9.47
2019-03-06T05:15:20.123Z,8.90
2019-03-06T05:18:26.188Z,7.80
2019-03-06T05:21:30.910Z,7.80
2019-03-06T05:24:35.338Z,8.17
2019-03-06T05:27:39.788Z,8.17
2019-03-06T05:30:44.487Z,12.97
2019-03-06T05:33:48.917Z,8.60
2019-03-06T05:37:24.168Z,9.60
2019-03-06T05:40:28.596Z,8.93
2019-03-06T05:43:33.021Z,8.47
2019-03-06T05:46:37.736Z,8.20
2019-03-06T05:49:42.164Z,8.03
2019-03-06T05:52:46.602Z,10.23
2019-03-06T05:55:51.421Z,7.90
2019-03-06T05:58:55.835Z,9.17
2019-03-06T06:02:00.576Z,7.07
2019-03-06T06:05:11.023Z,9.60
2019-03-06T06:08:15.456Z,9.23
2019-03-06T06:11:20.132Z,8.47
2019-03-06T06:14:24.815Z,9.03
2019-03-06T06:17:29.553Z,8.07
2019-03-06T06:20:34.285Z,8.20
2019-03-06T06:23:40.505Z,8.37
2019-03-06T06:26:45.178Z,8.80
2019-03-06T06:29:49.908Z,9.37
2019-03-06T06:32:54.333Z,8.13
2019-03-06T06:35:59.177Z,7.53
2019-03-06T06:39:05.122Z,7.47
2019-03-06T06:42:09.857Z,6.60
2019-03-06T06:45:20.147Z,8.53
2019-03-06T06:48:28.816Z,10.20
2019-03-06T06:51:48.910Z,8.07
2019-03-06T06:55:14.757Z,6.63
2019-03-06T06:58:32.786Z,5.73
2019-03-06T07:02:13.068Z,6.13
2019-03-06T07:05:22.425Z,8.97
2019-03-06T07:08:28.773Z,6.27
2019-03-06T07:11:40.621Z,7.87
2019-03-06T07:14:55.794Z,9.03
2019-03-06T07:18:05.790Z,7.20
2019-03-06T07:21:11.868Z,9.13
2019-03-06T07:24:36.041Z,7.20
2019-03-06T07:27:42.119Z,8.17
2019-03-06T07:30:53.634Z,6.17
2019-03-06T07:34:11.385Z,7.77
2019-03-06T07:37:17.484Z,7.33
2019-03-06T07:40:23.465Z,11.40
2019-03-06T07:43:35.930Z,9.43
2019-03-06T07:46:53.983Z,12.87
2019-03-06T07:50:02.783Z,9.80
2019-03-06T07:53:46.890Z,11.53
2019-03-06T07:56:55.614Z,10.93
2019-03-06T08:00:00.068Z,10.90
2019-03-06T08:03:07.186Z,18.33
2019-03-06T08:06:11.615Z,8.33
2019-03-06T08:09:20.965Z,11.70
2019-03-06T08:12:25.156Z,9.40
2019-03-06T08:15:47.251Z,12.43
2019-03-06T08:18:56.074Z,14.20
2019-03-06T08:22:02.085Z,15.67
2019-03-06T08:25:26.190Z,10.07
2019-03-06T08:28:30.643Z,10.03
2019-03-06T08:31:39.521Z,11.43
2019-03-06T08:34:44.204Z,9.77
2019-03-06T08:37:48.627Z,10.77
2019-03-06T08:40:53.072Z,6.77
2019-03-06T08:43:57.509Z,5.17
2019-03-06T08:47:12.341Z,4.47
2019-03-06T08:50:22.701Z,3.00
2019-03-06T08:53:29.074Z,6.50
2019-03-06T08:56:45.378Z,2.23
2019-03-06T08:59:54.101Z,6.77
2019-03-06T09:03:21.354Z,2.83
2019-03-06T09:06:33.669Z,5.87
2019-03-06T09:09:38.191Z,5.40
2019-03-06T09:12:44.264Z,3.93
2019-03-06T09:15:59.247Z,9.23
2019-03-06T09:19:21.147Z,3.27
2019-03-06T09:22:28.773Z,4.43
2019-03-06T09:25:46.972Z,3.80
2019-03-06T09:29:09.240Z,3.53
2019-03-06T09:32:15.315Z,7.60
2019-03-06T09:35:37.458Z,4.93
2019-03-06T09:38:44.320Z,5.57
2019-03-06T09:41:53.114Z,3.93
2019-03-06T09:45:05.773Z,5.30
2019-03-06T09:48:12.783Z,3.13
2019-03-06T09:51:24.666Z,3.23
2019-03-06T09:54:46.905Z,4.77
2019-03-06T09:57:55.661Z,4.03
2019-03-06T10:01:04.758Z,8.07
2019-03-06T10:04:15.248Z,5.17
2019-03-06T10:07:21.335Z,7.17
2019-03-06T10:10:27.423Z,5.67
2019-03-06T10:13:42.235Z,4.43
2019-03-06T10:16:49.017Z,4.77
2019-03-06T10:20:00.323Z,6.43
2019-03-06T10:23:04.883Z,6.60
2019-03-06T10:26:09.332Z,3.57
2019-03-06T10:29:14.053Z,4.23
2019-03-06T10:32:18.780Z,7.93
2019-03-06T10:35:23.227Z,3.73
2019-03-06T10:38:27.840Z,9.17
2019-03-06T10:41:32.285Z,2.97
2019-03-06T10:44:37.006Z,4.47
2019-03-06T10:47:41.430Z,6.37
2019-03-06T10:50:45.880Z,4.27
2019-03-06T10:53:50.313Z,3.87
2019-03-06T10:56:55.299Z,4.53
2019-03-06T10:59:59.738Z,6.47
2019-03-06T11:03:05.168Z,5.33
2019-03-06T11:06:10.006Z,6.13
2019-03-06T11:09:14.574Z,6.67
2019-03-06T11:12:19.014Z,3.00
2019-03-06T11:15:23.614Z,4.63
2019-03-06T11:18:28.673Z,4.57
2019-03-06T11:21:34.164Z,3.57
2019-03-06T11:24:38.604Z,7.07
2019-03-06T11:27:43.047Z,5.70
2019-03-06T11:30:56.778Z,5.10
2019-03-06T11:34:01.220Z,6.30
2019-03-06T11:37:06.138Z,7.00
2019-03-06T11:40:16.581Z,2.63
2019-03-06T11:43:21.373Z,3.37
2019-03-06T11:46:27.598Z,4.13
2019-03-06T11:49:32.212Z,4.17
2019-03-06T11:52:36.938Z,3.37
2019-03-06T11:55:41.549Z,3.87
2019-03-06T11:58:46.524Z,2.33
2019-03-06T12:01:51.042Z,2.93
2019-03-06T12:04:55.478Z,3.00
2019-03-06T12:07:59.988Z,1.77
2019-03-06T12:11:04.502Z,3.23
2019-03-06T12:14:09.017Z,2.57
2019-03-06T12:17:13.531Z,3.00
2019-03-06T12:20:17.976Z,3.07
2019-03-06T12:23:22.475Z,1.63
2019-03-06T12:26:26.917Z,2.17
2019-03-06T12:29:31.599Z,3.17
2019-03-06T12:32:36.388Z,2.07
2019-03-06T12:35:40.826Z,2.80
2019-03-06T12:38:45.271Z,1.40
2019-03-06T12:41:49.993Z,1.53
2019-03-06T12:44:54.428Z,2.37
2019-03-06T12:48:06.368Z,1.23
2019-03-06T12:51:10.802Z,3.83
2019-03-06T12:54:15.249Z,2.20
2019-03-06T12:57:19.697Z,0.50
2019-03-06T13:00:26.610Z,3.77
2019-03-06T13:03:31.236Z,4.77
2019-03-06T13:06:35.667Z,1.00
2019-03-06T13:09:40.107Z,4.03
2019-03-06T13:12:45.264Z,1.57
2019-03-06T13:15:49.704Z,3.40
2019-03-06T13:18:54.144Z,2.20
2019-03-06T13:21:58.587Z,5.20
2019-03-06T13:25:03.031Z,7.87
2019-03-06T13:28:07.995Z,3.80
2019-03-06T13:31:12.428Z,1.43
2019-03-06T13:34:18.788Z,2.50
2019-03-06T13:37:23.226Z,1.67
2019-03-06T13:40:27.674Z,2.93
2019-03-06T13:43:32.113Z,1.13
2019-03-06T13:46:36.613Z,6.13
2019-03-06T13:49:41.052Z,2.20
2019-03-06T13:52:45.564Z,2.13
2019-03-06T13:55:50.003Z,3.90
2019-03-06T13:58:54.799Z,2.00
2019-03-06T14:01:59.567Z,3.70
2019-03-06T14:05:06.081Z,9.20
2019-03-06T14:08:10.827Z,0.83
2019-03-06T14:11:15.337Z,7.30
2019-03-06T14:14:20.081Z,5.30
2019-03-06T14:17:24.813Z,1.83
2019-03-06T14:20:29.260Z,6.10
2019-03-06T14:23:35.271Z,5.40
2019-03-06T14:26:39.993Z,16.83
2019-03-06T14:29:44.437Z,5.97
2019-03-06T14:32:49.798Z,3.07
2019-03-06T14:35:54.529Z,4.17
2019-03-06T14:38:59.261Z,2.80
2019-03-06T14:42:04.394Z,8.27
2019-03-06T14:45:13.637Z,5.17
2019-03-06T14:48:18.469Z,9.20
2019-03-06T14:51:22.909Z,2.03
2019-03-06T14:54:27.624Z,1.20
2019-03-06T14:57:32.602Z,1.77
2019-03-06T15:00:37.097Z,4.37
2019-03-06T15:03:41.540Z,2.13
2019-03-06T15:06:46.348Z,4.87
2019-03-06T15:09:51.070Z,1.20
2019-03-06T15:12:55.603Z,2.37
2019-03-06T15:16:00.438Z,4.43
2019-03-06T15:19:04.947Z,2.57
2019-03-06T15:22:09.390Z,3.73
2019-03-06T15:25:23.848Z,11.77
2019-03-06T15:28:28.571Z,2.50
2019-03-06T15:31:33.310Z,4.70
2019-03-06T15:34:37.743Z,4.30
2019-03-06T15:37:42.177Z,2.53
2019-03-06T15:40:46.613Z,3.07
2019-03-06T15:43:51.308Z,2.93
2019-03-06T15:46:56.033Z,4.60
2019-03-06T15:50:00.868Z,4.33
2019-03-06T15:53:05.846Z,3.30
2019-03-06T15:56:10.357Z,9.90
2019-03-06T15:59:15.329Z,5.03
2019-03-06T16:02:19.785Z,3.77
2019-03-06T16:05:24.226Z,5.00
2019-03-06T16:08:29.659Z,2.73
2019-03-06T16:11:34.396Z,2.23
2019-03-06T16:14:39.125Z,4.57
2019-03-06T16:17:43.562Z,3.03
2019-03-06T16:20:48.004Z,4.57
2019-03-06T16:23:52.442Z,6.17
2019-03-06T16:26:57.242Z,5.53
2019-03-06T16:30:01.955Z,4.67
2019-03-06T16:33:06.835Z,6.30
2019-03-06T16:36:11.287Z,8.03
2019-03-06T16:39:16.049Z,7.53
2019-03-06T16:42:20.777Z,7.50
2019-03-06T16:45:29.942Z,5.93
2019-03-06T16:48:34.379Z,7.13
2019-03-06T16:51:38.818Z,5.53
2019-03-06T16:54:43.258Z,7.43
2019-03-06T16:57:48.235Z,5.13
2019-03-06T17:00:55.619Z,4.50
2019-03-06T17:04:00.149Z,3.17
2019-03-06T17:07:05.186Z,2.13
2019-03-06T17:10:10.012Z,2.90
2019-03-06T17:13:14.443Z,3.07
2019-03-06T17:16:18.951Z,5.47
2019-03-06T17:19:23.455Z,7.73
2019-03-06T17:22:28.219Z,4.67
2019-03-06T17:25:33.670Z,3.20
2019-03-06T17:28:38.103Z,2.83
2019-03-06T17:31:43.488Z,4.33
2019-03-06T17:34:47.967Z,5.80
2019-03-06T17:37:52.793Z,4.77
2019-03-06T17:40:57.236Z,6.03
2019-03-06T17:44:01.955Z,5.53
2019-03-06T17:47:06.397Z,4.33
2019-03-06T17:50:12.741Z,5.77
2019-03-06T17:53:17.180Z,10.93
2019-03-06T17:56:21.916Z,11.17
2019-03-06T17:59:26.727Z,2.80
2019-03-06T18:02:31.559Z,5.67
2019-03-06T18:05:36.413Z,8.73
2019-03-06T18:08:40.841Z,6.23
2019-03-06T18:11:45.350Z,2.93
2019-03-06T18:14:50.079Z,4.73
2019-03-06T18:17:54.515Z,3.97
2019-03-06T18:20:58.977Z,4.87
2019-03-06T18:24:03.855Z,3.00
2019-03-06T18:27:08.690Z,3.83
2019-03-06T18:30:18.735Z,5.70
2019-03-06T18:33:23.181Z,6.50
2019-03-06T18:36:27.695Z,6.00
2019-03-06T18:39:32.425Z,7.23
2019-03-06T18:42:37.155Z,6.77
2019-03-06T18:45:41.758Z,3.73
2019-03-06T18:48:46.247Z,5.67
2019-03-06T18:51:50.686Z,5.33
2019-03-06T18:54:55.124Z,10.30
2019-03-06T18:57:59.918Z,11.07
2019-03-06T19:01:05.030Z,6.50
2019-03-06T19:04:09.756Z,5.57
2019-03-06T19:07:14.198Z,6.47
2019-03-06T19:10:20.667Z,5.17
2019-03-06T19:13:25.278Z,5.17
2019-03-06T19:16:30.935Z,6.17
2019-03-06T19:19:35.666Z,3.80
2019-03-06T19:22:40.932Z,6.30
2019-03-06T19:25:45.367Z,6.10
2019-03-06T19:28:49.812Z,4.67
2019-03-06T19:31:54.261Z,4.50
2019-03-06T19:34:59.322Z,5.03
2019-03-06T19:38:04.152Z,7.50
2019-03-06T19:41:08.887Z,4.00
2019-03-06T19:44:13.612Z,5.97
2019-03-06T19:47:18.350Z,3.53
2019-03-06T19:50:26.242Z,5.10
2019-03-06T19:53:31.186Z,7.60
2019-03-06T19:56:35.629Z,7.30
2019-03-06T19:59:40.336Z,3.90
2019-03-06T20:02:45.067Z,4.87
2019-03-06T20:05:49.506Z,4.80
2019-03-06T20:08:54.230Z,4.17
2019-03-06T20:11:58.959Z,4.47
2019-03-06T20:15:03.772Z,2.27
2019-03-06T20:18:08.218Z,3.90
2019-03-06T20:21:12.938Z,6.37
2019-03-06T20:24:17.376Z,5.00
2019-03-06T20:27:21.819Z,6.33
2019-03-06T20:30:27.769Z,4.77
2019-03-06T20:33:34.104Z,4.70
2019-03-06T20:36:39.053Z,3.20
2019-03-06T20:39:43.775Z,6.17
2019-03-06T20:42:48.924Z,3.80
2019-03-06T20:45:53.362Z,4.53
2019-03-06T20:48:57.886Z,4.53
2019-03-06T20:52:02.318Z,3.80
2019-03-06T20:55:10.411Z,4.10
2019-03-06T20:58:14.846Z,5.60
2019-03-06T21:01:19.289Z,7.00
2019-03-06T21:04:23.990Z,4.93
2019-03-06T21:07:28.814Z,8.50
2019-03-06T21:10:33.247Z,3.20
2019-03-06T21:13:37.975Z,3.97
2019-03-06T21:16:42.699Z,3.57
2019-03-06T21:19:47.433Z,4.77
2019-03-06T21:22:52.273Z,3.63
2019-03-06T21:25:57.003Z,4.93
2019-03-06T21:29:01.438Z,2.27
2019-03-06T21:32:06.152Z,3.23
2019-03-06T21:35:10.982Z,3.27
2019-03-06T21:38:15.428Z,2.77
2019-03-06T21:41:19.862Z,4.10
2019-03-06T21:44:24.315Z,3.83
2019-03-06T21:47:28.817Z,3.90
2019-03-06T21:50:33.524Z,8.63
2019-03-06T21:53:39.190Z,3.87
2019-03-06T21:56:44.003Z,3.57
2019-03-06T21:59:48.830Z,2.67
2019-03-06T22:02:53.988Z,3.07
2019-03-06T22:05:58.411Z,6.13
2019-03-06T22:09:02.924Z,3.40
2019-03-06T22:12:07.643Z,4.30
2019-03-06T22:15:22.938Z,3.00
2019-03-06T22:18:27.661Z,4.43
2019-03-06T22:21:32.110Z,4.63
2019-03-06T22:24:36.560Z,5.40
2019-03-06T22:27:40.993Z,3.13
2019-03-06T22:30:45.443Z,6.00
2019-03-06T22:33:50.187Z,4.27
2019-03-06T22:36:54.923Z,3.80
2019-03-06T22:39:59.361Z,3.83
2019-03-06T22:43:04.080Z,4.97
2019-03-06T22:46:08.803Z,9.87
2019-03-06T22:49:13.532Z,4.37
2019-03-06T22:52:18.265Z,7.43
2019-03-06T22:55:22.775Z,6.90
2019-03-06T22:58:27.520Z,7.63
2019-03-06T23:01:32.799Z,6.37
2019-03-06T23:04:37.496Z,11.73
2019-03-06T23:07:42.227Z,5.80
2019-03-06T23:10:47.564Z,5.73
2019-03-06T23:13:52.307Z,4.87
2019-03-06T23:16:57.034Z,6.73
2019-03-06T23:20:01.487Z,7.10
2019-03-06T23:23:06.498Z,6.00
2019-03-06T23:26:11.222Z,3.83
2019-03-06T23:29:15.659Z,5.30
2019-03-06T23:32:20.383Z,6.47
2019-03-06T23:35:24.820Z,5.17
2019-03-06T23:38:29.247Z,7.13
2019-03-06T23:41:33.952Z,6.67
2019-03-06T23:44:38.378Z,8.13
2019-03-06T23:47:43.112Z,7.50
2019-03-06T23:50:47.546Z,5.87
2019-03-06T23:53:52.739Z,4.07
2019-03-06T23:56:57.247Z,5.67
